Time;durP1;ratioP1;P1;durP2;ratioP2;P2;SDS_P1;SDS_P2;PMS_P1;PMS_P2;Temp;Humidity;BMP_temperature;BMP_pressure;BME280_temperature;BME280_humidity;BME280_pressure;Samples;Min_cycle;Max_cycle;Signal;HPM_P1;HPM_P2
2023/05/24 00:02:12;;;;;;;19.38;5.40;;;9.40;99.90;;;;;;5094894;28;20043;-63
2023/05/24 00:04:39;;;;;;;19.40;6.03;;;9.40;99.90;;;;;;5093711;28;20114;-63
2023/05/24 00:07:05;;;;;;;20.85;5.55;;;9.50;99.90;;;;;;5093275;28;20044;-63
2023/05/24 00:09:31;;;;;;;18.55;6.10;;;9.50;99.90;;;;;;5088952;28;20068;-63
2023/05/24 00:11:57;;;;;;;23.08;6.93;;;9.60;99.90;;;;;;5115621;28;20042;-63
2023/05/24 00:14:24;;;;;;;22.77;5.43;;;9.50;99.90;;;;;;5095983;28;20047;-63
2023/05/24 00:16:50;;;;;;;16.17;5.85;;;9.60;99.90;;;;;;5114888;28;20393;-63
2023/05/24 00:19:17;;;;;;;16.38;4.95;;;9.60;99.90;;;;;;5115247;28;20035;-63
2023/05/24 00:21:46;;;;;;;20.77;5.28;;;9.60;99.90;;;;;;5114504;28;20127;-63
2023/05/24 00:24:12;;;;;;;22.52;5.35;;;9.70;99.90;;;;;;5113975;28;20137;-63
2023/05/24 00:26:38;;;;;;;14.98;5.40;;;9.70;99.90;;;;;;5113637;28;20085;-63
2023/05/24 00:29:04;;;;;;;20.02;5.25;;;9.70;99.90;;;;;;5114421;28;20078;-63
2023/05/24 00:31:30;;;;;;;15.85;6.05;;;9.70;99.90;;;;;;5113366;28;20073;-63
2023/05/24 00:34:08;;;;;;;17.88;5.97;;;9.70;99.90;;;;;;5114536;28;20044;-63
2023/05/24 00:36:33;;;;;;;19.25;6.15;;;9.80;99.90;;;;;;5112917;28;20043;-63
2023/05/24 00:38:59;;;;;;;22.48;5.93;;;9.70;99.90;;;;;;5115224;28;20396;-63
2023/05/24 00:41:25;;;;;;;16.35;5.53;;;9.80;99.90;;;;;;5113491;28;20143;-63
2023/05/24 00:43:51;;;;;;;19.63;5.40;;;9.80;99.90;;;;;;5112739;28;20139;-63
2023/05/24 00:46:43;;;;;;;17.45;5.53;;;9.80;99.90;;;;;;5113372;28;20126;-64
2023/05/24 00:49:09;;;;;;;19.88;5.30;;;9.90;99.90;;;;;;5089239;28;20087;-63
2023/05/24 00:51:35;;;;;;;21.00;6.07;;;9.90;99.90;;;;;;5094065;28;20480;-63
2023/05/24 00:54:01;;;;;;;18.90;5.57;;;9.90;99.90;;;;;;5092994;28;20063;-63
2023/05/24 00:56:28;;;;;;;18.42;5.90;;;9.90;99.90;;;;;;5093138;28;20039;-63
2023/05/24 00:58:54;;;;;;;20.58;5.10;;;9.90;99.90;;;;;;5094324;28;20089;-63
2023/05/24 01:01:24;;;;;;;14.38;4.97;;;9.90;99.90;;;;;;5097849;28;20103;-63
2023/05/24 01:03:52;;;;;;;18.63;5.30;;;9.90;99.90;;;;;;5112256;28;20050;-63
2023/05/24 01:06:18;;;;;;;18.08;6.38;;;9.90;99.90;;;;;;5113094;28;20089;-63
2023/05/24 01:08:58;;;;;;;17.65;5.38;;;9.90;99.90;;;;;;5112753;28;20044;-63
2023/05/24 01:11:47;;;;;;;21.70;5.85;;;9.90;99.90;;;;;;5113188;28;20043;-63
2023/05/24 01:14:43;;;;;;;20.92;5.45;;;9.90;99.90;;;;;;5114183;28;20053;-63
2023/05/24 01:17:16;;;;;;;24.83;6.00;;;9.90;99.90;;;;;;5109330;28;20389;-63
2023/05/24 01:19:58;;;;;;;19.63;5.90;;;10.00;99.90;;;;;;5092514;28;20040;-63
2023/05/24 01:23:14;;;;;;;19.52;6.18;;;9.90;99.90;;;;;;5093409;28;20446;-63
2023/05/24 01:26:02;;;;;;;15.90;5.10;;;9.90;99.90;;;;;;5091305;28;20529;-63
2023/05/24 01:28:30;;;;;;;19.90;5.38;;;9.80;99.90;;;;;;5092248;28;20378;-63
2023/05/24 01:30:57;;;;;;;23.95;5.45;;;9.80;99.90;;;;;;5092739;28;20484;-63
2023/05/24 01:33:23;;;;;;;17.10;5.22;;;9.80;99.90;;;;;;5092882;28;20087;-63
2023/05/24 01:35:49;;;;;;;15.13;6.00;;;9.80;99.90;;;;;;5093484;28;20039;-63
2023/05/24 01:38:15;;;;;;;21.45;5.03;;;9.80;99.90;;;;;;5092469;28;20028;-63
2023/05/24 01:40:41;;;;;;;17.13;4.68;;;9.70;99.90;;;;;;5091892;28;20105;-63
2023/05/24 01:43:26;;;;;;;18.30;5.47;;;9.70;99.90;;;;;;5092230;28;20070;-63
2023/05/24 01:46:10;;;;;;;17.00;5.10;;;9.70;99.90;;;;;;5090280;28;20097;-63
2023/05/24 01:49:05;;;;;;;14.95;6.05;;;9.70;99.90;;;;;;5091869;28;20052;-63
2023/05/24 01:51:43;;;;;;;16.77;6.53;;;9.70;99.90;;;;;;5091627;28;20112;-63
2023/05/24 01:54:11;;;;;;;16.65;4.97;;;9.70;99.90;;;;;;5091021;28;20048;-63
2023/05/24 01:56:38;;;;;;;21.92;6.25;;;9.60;99.90;;;;;;5092687;28;20085;-63
2023/05/24 01:59:05;;;;;;;18.63;5.95;;;9.70;99.90;;;;;;5091515;28;20376;-63
2023/05/24 02:01:32;;;;;;;18.35;4.93;;;9.60;99.90;;;;;;5091361;28;20492;-63
2023/05/24 02:03:58;;;;;;;16.98;5.05;;;9.60;99.90;;;;;;5093060;28;20112;-63
2023/05/24 02:06:24;;;;;;;15.57;5.07;;;9.60;99.90;;;;;;5091498;28;20040;-63
2023/05/24 02:08:51;;;;;;;29.50;5.47;;;9.60;99.90;;;;;;5093021;28;20056;-63
2023/05/24 02:11:17;;;;;;;17.58;5.63;;;9.60;99.90;;;;;;5091296;28;20489;-63
2023/05/24 02:13:42;;;;;;;20.40;5.35;;;9.50;99.90;;;;;;5090415;28;20051;-63
2023/05/24 02:16:09;;;;;;;17.33;5.40;;;9.50;99.90;;;;;;5092983;28;20040;-63
2023/05/24 02:18:35;;;;;;;17.90;4.68;;;9.50;99.90;;;;;;5091486;28;20051;-63
2023/05/24 02:21:01;;;;;;;18.05;4.72;;;9.50;99.90;;;;;;5091919;28;20465;-63
2023/05/24 02:23:27;;;;;;;17.45;4.80;;;9.50;99.90;;;;;;5091011;28;20123;-63
2023/05/24 02:25:54;;;;;;;17.75;5.25;;;9.50;99.90;;;;;;5092834;28;20381;-63
2023/05/24 02:28:20;;;;;;;16.50;5.15;;;9.50;99.90;;;;;;5090090;28;20477;-63
2023/05/24 02:30:46;;;;;;;18.23;6.18;;;9.50;99.90;;;;;;5092719;28;20028;-63
2023/05/24 02:33:12;;;;;;;20.88;5.03;;;9.50;99.90;;;;;;5092252;28;20044;-63
2023/05/24 02:35:40;;;;;;;21.05;5.25;;;9.50;99.90;;;;;;5090070;28;20035;-63
2023/05/24 02:38:05;;;;;;;22.83;6.65;;;9.40;99.90;;;;;;5108514;28;20044;-63
2023/05/24 02:40:31;;;;;;;21.48;5.25;;;9.40;99.90;;;;;;5111030;28;20050;-63
2023/05/24 02:42:57;;;;;;;22.20;5.18;;;9.40;99.90;;;;;;5110417;28;20043;-63
2023/05/24 02:45:23;;;;;;;15.15;4.85;;;9.40;99.90;;;;;;5112230;28;20043;-63
2023/05/24 02:47:48;;;;;;;25.27;6.35;;;9.40;99.90;;;;;;5111578;28;20039;-63
2023/05/24 02:50:14;;;;;;;15.18;4.78;;;9.40;99.90;;;;;;5110670;28;20441;-63
2023/05/24 02:52:45;;;;;;;18.58;4.72;;;9.40;99.90;;;;;;5111961;28;20506;-63
2023/05/24 02:55:11;;;;;;;19.30;5.03;;;9.40;99.90;;;;;;5110502;28;20043;-63
2023/05/24 02:57:37;;;;;;;30.40;5.65;;;9.30;99.90;;;;;;5115887;28;20504;-63
2023/05/24 03:00:06;;;;;;;20.30;4.72;;;9.30;99.90;;;;;;5118218;28;20493;-63
2023/05/24 03:02:32;;;;;;;15.45;4.38;;;9.30;99.90;;;;;;5100038;28;20044;-63
2023/05/24 03:04:58;;;;;;;15.60;5.28;;;9.20;99.90;;;;;;5118185;28;20047;-63
2023/05/24 03:07:24;;;;;;;16.42;5.40;;;9.20;99.90;;;;;;5118701;27;20039;-63
2023/05/24 03:09:49;;;;;;;19.25;5.70;;;9.20;99.90;;;;;;5118151;27;20043;-63
2023/05/24 03:12:15;;;;;;;16.20;5.35;;;9.20;99.90;;;;;;5119073;27;20043;-63
2023/05/24 03:14:41;;;;;;;12.02;4.22;;;9.20;99.90;;;;;;5119227;27;20039;-63
2023/05/24 03:17:06;;;;;;;17.52;4.15;;;9.20;99.90;;;;;;5118538;27;20043;-63
2023/05/24 03:19:32;;;;;;;20.05;5.28;;;9.10;99.90;;;;;;5118710;27;20129;-63
2023/05/24 03:21:58;;;;;;;12.55;4.18;;;9.20;99.90;;;;;;5118051;28;20054;-63
2023/05/24 03:24:24;;;;;;;15.73;4.90;;;9.20;99.90;;;;;;5099455;28;20040;-63
2023/05/24 03:26:50;;;;;;;15.60;5.25;;;9.20;99.90;;;;;;5117393;28;20057;-63
2023/05/24 03:29:16;;;;;;;17.27;4.63;;;9.20;99.90;;;;;;5117725;28;20040;-63
2023/05/24 03:31:41;;;;;;;14.25;4.20;;;9.20;99.90;;;;;;5118082;28;20078;-63
2023/05/24 03:34:07;;;;;;;19.88;4.57;;;9.30;99.90;;;;;;5119046;27;20032;-63
2023/05/24 03:36:33;;;;;;;21.98;5.40;;;9.30;99.90;;;;;;5117439;28;20050;-63
2023/05/24 03:38:58;;;;;;;16.35;4.95;;;9.30;99.90;;;;;;5118736;28;20114;-63
2023/05/24 03:41:25;;;;;;;17.67;4.25;;;9.30;99.90;;;;;;5108493;28;20036;-63
2023/05/24 03:43:51;;;;;;;23.00;4.57;;;9.30;99.90;;;;;;5096912;28;20131;-63
2023/05/24 03:46:17;;;;;;;18.67;5.38;;;9.30;99.90;;;;;;5079442;28;20046;-63
2023/05/24 03:48:42;;;;;;;19.50;5.80;;;9.30;99.90;;;;;;5098362;28;20040;-63
2023/05/24 03:51:08;;;;;;;12.75;4.40;;;9.30;99.90;;;;;;5098539;28;20042;-63
2023/05/24 03:53:34;;;;;;;20.05;5.43;;;9.30;99.90;;;;;;5097157;28;20040;-63
2023/05/24 03:55:59;;;;;;;16.40;4.50;;;9.30;99.90;;;;;;5097160;28;20036;-63
2023/05/24 03:58:25;;;;;;;17.38;4.65;;;9.30;99.90;;;;;;5096573;28;20052;-63
2023/05/24 04:00:51;;;;;;;17.08;5.93;;;9.40;99.90;;;;;;5097017;28;20496;-63
2023/05/24 04:03:18;;;;;;;13.05;4.47;;;9.40;99.90;;;;;;5096906;28;20044;-63
2023/05/24 04:05:44;;;;;;;19.05;5.70;;;9.40;99.90;;;;;;5096073;28;20075;-63
2023/05/24 04:08:11;;;;;;;19.38;5.68;;;9.40;99.90;;;;;;5078085;28;20119;-63
2023/05/24 04:10:37;;;;;;;19.52;4.55;;;9.50;99.90;;;;;;5093595;28;20569;-63
2023/05/24 04:13:02;;;;;;;17.45;4.72;;;9.50;99.90;;;;;;5094372;28;20040;-63
2023/05/24 04:15:28;;;;;;;15.88;4.32;;;9.60;99.90;;;;;;5093279;28;20118;-63
2023/05/24 04:17:54;;;;;;;12.85;4.82;;;9.60;99.90;;;;;;5095012;28;20106;-63
2023/05/24 04:20:25;;;;;;;18.33;5.80;;;9.70;99.90;;;;;;5092340;28;20043;-63
2023/05/24 04:22:51;;;;;;;21.40;5.25;;;9.70;99.90;;;;;;5093780;28;20052;-63
2023/05/24 04:25:17;;;;;;;20.77;5.60;;;9.80;99.90;;;;;;5093216;28;20138;-63
2023/05/24 04:27:43;;;;;;;16.08;4.75;;;9.80;99.90;;;;;;5093803;28;20073;-63
2023/05/24 04:30:09;;;;;;;16.02;5.45;;;9.80;99.90;;;;;;5093308;28;20098;-63
2023/05/24 04:32:35;;;;;;;16.58;4.68;;;9.90;99.90;;;;;;5094436;28;20075;-63
2023/05/24 04:35:04;;;;;;;21.55;5.68;;;9.90;99.90;;;;;;5093936;28;20063;-63
2023/05/24 04:37:31;;;;;;;15.02;4.78;;;9.90;99.90;;;;;;5092778;28;20043;-63
2023/05/24 04:39:57;;;;;;;15.48;4.25;;;10.00;99.90;;;;;;5093307;28;20047;-63
2023/05/24 04:42:22;;;;;;;22.73;5.63;;;10.00;99.90;;;;;;5092035;28;20036;-63
2023/05/24 04:44:48;;;;;;;22.63;7.35;;;10.00;99.90;;;;;;5093052;28;20063;-63
2023/05/24 04:47:15;;;;;;;13.13;5.00;;;10.10;99.90;;;;;;5094267;28;20047;-63
2023/05/24 04:49:40;;;;;;;16.65;5.82;;;10.10;99.90;;;;;;5093273;28;20105;-63
2023/05/24 04:52:06;;;;;;;14.82;5.40;;;10.20;99.90;;;;;;5093368;28;20430;-63
2023/05/24 04:54:32;;;;;;;15.70;8.00;;;10.20;99.90;;;;;;5093704;28;20044;-63
2023/05/24 04:56:58;;;;;;;19.42;10.50;;;10.20;99.90;;;;;;5092239;28;20127;-63
2023/05/24 04:59:24;;;;;;;22.92;7.15;;;10.30;99.90;;;;;;5075570;28;20040;-63
2023/05/24 05:01:50;;;;;;;23.95;8.07;;;10.30;99.90;;;;;;5093379;28;20135;-63
2023/05/24 05:04:16;;;;;;;17.80;9.48;;;10.30;99.90;;;;;;5092699;28;20513;-63
2023/05/24 05:06:43;;;;;;;18.33;6.15;;;10.40;99.90;;;;;;5093949;28;20063;-63
2023/05/24 05:09:11;;;;;;;29.20;9.05;;;10.40;99.90;;;;;;5091832;28;20040;-64
2023/05/24 05:11:37;;;;;;;16.13;7.57;;;10.50;99.90;;;;;;5093874;28;20166;-63
2023/05/24 05:14:03;;;;;;;15.68;6.00;;;10.50;99.90;;;;;;5092556;28;20057;-63
2023/05/24 05:16:30;;;;;;;23.15;7.40;;;10.50;99.90;;;;;;5074692;28;20043;-63
2023/05/24 05:18:56;;;;;;;17.63;5.95;;;10.60;99.90;;;;;;5092846;28;20412;-63
2023/05/24 05:21:22;;;;;;;23.02;6.18;;;10.60;99.90;;;;;;5091788;28;20040;-63
2023/05/24 05:23:47;;;;;;;18.95;6.10;;;10.60;99.90;;;;;;5092969;28;20044;-63
2023/05/24 05:26:13;;;;;;;18.88;9.02;;;10.60;99.90;;;;;;5093501;28;20040;-63
2023/05/24 05:28:39;;;;;;;21.15;7.50;;;10.70;99.90;;;;;;5093450;28;20080;-63
2023/05/24 05:31:04;;;;;;;13.23;4.78;;;10.70;99.90;;;;;;5092799;28;20043;-63
2023/05/24 05:33:31;;;;;;;18.95;5.00;;;10.80;99.90;;;;;;5097318;28;20046;-63
2023/05/24 05:35:57;;;;;;;16.95;6.25;;;10.80;99.90;;;;;;5105137;28;20044;-63
2023/05/24 05:38:23;;;;;;;18.13;5.78;;;10.80;99.90;;;;;;5095889;28;20400;-64
2023/05/24 05:40:48;;;;;;;22.00;10.95;;;10.90;99.90;;;;;;5093521;28;20036;-63
2023/05/24 05:43:14;;;;;;;23.02;10.85;;;10.90;99.90;;;;;;5092988;28;20063;-63
2023/05/24 05:45:40;;;;;;;14.43;5.68;;;10.90;99.90;;;;;;5092135;28;20044;-63
2023/05/24 05:48:05;;;;;;;18.25;7.75;;;11.00;99.90;;;;;;5101888;28;20027;-63
2023/05/24 05:50:31;;;;;;;21.60;9.10;;;11.00;99.90;;;;;;5113244;28;20028;-63
2023/05/24 05:52:57;;;;;;;37.83;16.98;;;11.10;99.90;;;;;;5111515;28;20518;-63
2023/05/24 05:55:23;;;;;;;30.23;13.63;;;11.10;99.90;;;;;;5111828;28;20100;-63
2023/05/24 05:57:49;;;;;;;32.35;15.23;;;11.10;99.90;;;;;;5109288;28;20043;-63
2023/05/24 06:00:15;;;;;;;23.08;6.63;;;11.20;99.90;;;;;;5102308;28;20148;-63
2023/05/24 06:02:41;;;;;;;16.17;5.40;;;11.20;99.90;;;;;;5093722;28;20040;-63
2023/05/24 06:05:07;;;;;;;16.92;5.38;;;11.30;99.90;;;;;;5111086;28;20484;-63
2023/05/24 06:07:32;;;;;;;25.70;4.65;;;11.20;99.90;;;;;;5112615;28;20511;-63
2023/05/24 06:09:58;;;;;;;16.45;4.70;;;11.30;99.90;;;;;;5113329;28;20043;-63
2023/05/24 06:12:25;;;;;;;11.75;4.45;;;11.30;99.90;;;;;;5111948;28;20648;-63
2023/05/24 06:14:51;;;;;;;16.05;5.70;;;11.30;99.90;;;;;;5113136;28;20044;-63
2023/05/24 06:17:17;;;;;;;24.02;9.88;;;11.30;99.90;;;;;;5112587;28;20155;-63
2023/05/24 06:19:43;;;;;;;13.48;5.03;;;11.30;99.90;;;;;;5112176;28;20035;-63
2023/05/24 06:22:09;;;;;;;16.48;5.80;;;11.30;99.90;;;;;;5112893;28;20373;-63
2023/05/24 06:24:35;;;;;;;18.88;4.63;;;11.40;99.90;;;;;;5111945;28;20472;-64
2023/05/24 06:27:01;;;;;;;18.70;4.60;;;11.40;99.90;;;;;;5109744;28;20039;-63
2023/05/24 06:29:27;;;;;;;14.75;4.40;;;11.50;99.90;;;;;;5091399;28;20039;-63
2023/05/24 06:31:52;;;;;;;11.38;4.05;;;11.50;99.90;;;;;;5108389;28;20527;-63
2023/05/24 06:34:21;;;;;;;16.25;4.90;;;11.60;99.90;;;;;;5108049;28;20075;-63
2023/05/24 06:36:47;;;;;;;14.60;4.28;;;11.60;99.90;;;;;;5086217;28;20221;-63
2023/05/24 06:39:14;;;;;;;14.63;3.78;;;11.70;99.90;;;;;;5088033;28;20553;-63
2023/05/24 06:41:41;;;;;;;9.88;3.75;;;11.80;99.90;;;;;;5099187;28;20096;-63
2023/05/24 06:44:06;;;;;;;11.52;3.35;;;11.90;99.90;;;;;;5101101;28;20083;-63
2023/05/24 06:46:33;;;;;;;9.43;3.28;;;12.10;99.90;;;;;;5108089;28;20499;-63
2023/05/24 06:48:58;;;;;;;12.63;4.18;;;12.40;99.90;;;;;;5107737;28;20492;-63
2023/05/24 06:51:24;;;;;;;11.88;4.20;;;12.50;99.90;;;;;;5107477;28;20086;-63
2023/05/24 06:53:50;;;;;;;15.73;5.18;;;12.60;99.90;;;;;;5108876;28;20043;-63
2023/05/24 06:56:15;;;;;;;15.55;5.75;;;12.80;99.90;;;;;;5108694;28;20074;-63
2023/05/24 06:58:41;;;;;;;11.18;4.00;;;12.90;99.90;;;;;;5109136;28;20036;-63
2023/05/24 07:01:07;;;;;;;12.77;5.05;;;12.90;99.90;;;;;;5100057;28;20062;-63
2023/05/24 07:03:34;;;;;;;20.20;8.63;;;12.90;99.90;;;;;;5100237;28;20433;-63
2023/05/24 07:06:00;;;;;;;23.75;11.65;;;12.80;99.90;;;;;;5108569;28;20044;-63
2023/05/24 07:08:26;;;;;;;25.38;11.07;;;12.70;99.90;;;;;;5107488;28;20457;-63
2023/05/24 07:10:52;;;;;;;14.40;4.40;;;12.60;99.90;;;;;;5109794;28;20412;-63
2023/05/24 07:13:18;;;;;;;14.27;4.07;;;12.60;99.90;;;;;;5108167;28;20500;-63
2023/05/24 07:15:45;;;;;;;22.23;11.57;;;12.50;99.90;;;;;;5107600;28;20047;-63
2023/05/24 07:18:12;;;;;;;13.57;6.78;;;12.60;99.90;;;;;;5108132;28;20100;-63
2023/05/24 07:20:37;;;;;;;15.20;4.63;;;12.60;99.90;;;;;;5104558;28;20189;-63
2023/05/24 07:23:03;;;;;;;10.82;4.40;;;12.60;99.90;;;;;;5105336;28;20568;-64
2023/05/24 07:25:30;;;;;;;18.67;5.97;;;12.70;99.90;;;;;;5094959;28;20046;-63
2023/05/24 07:27:55;;;;;;;15.35;4.35;;;12.60;99.90;;;;;;5108254;28;20775;-63
2023/05/24 07:30:21;;;;;;;17.73;6.30;;;12.60;99.90;;;;;;5108675;28;20035;-63
2023/05/24 07:32:47;;;;;;;12.02;5.32;;;12.60;99.90;;;;;;5109625;28;20032;-64
2023/05/24 07:35:13;;;;;;;8.57;3.72;;;12.60;99.90;;;;;;5102849;28;20039;-63
2023/05/24 07:37:39;;;;;;;13.02;3.95;;;12.60;99.90;;;;;;5088706;28;20488;-63
2023/05/24 07:40:09;;;;;;;12.02;4.38;;;12.70;99.90;;;;;;5078614;28;20485;-64
2023/05/24 07:42:35;;;;;;;15.77;4.47;;;12.70;99.90;;;;;;5071058;28;20079;-63
2023/05/24 07:45:01;;;;;;;14.38;4.70;;;12.70;99.90;;;;;;5076700;28;20052;-64
2023/05/24 07:47:27;;;;;;;11.40;5.18;;;12.70;99.90;;;;;;5092408;28;20047;-63
2023/05/24 07:49:52;;;;;;;12.05;4.20;;;12.70;99.90;;;;;;5091988;28;20409;-63
2023/05/24 07:52:19;;;;;;;14.25;3.60;;;12.80;99.90;;;;;;5091533;28;20047;-64
2023/05/24 07:54:45;;;;;;;10.90;3.42;;;12.90;99.90;;;;;;5085410;28;20051;-63
2023/05/24 07:57:11;;;;;;;12.32;3.72;;;13.00;99.90;;;;;;5112051;28;20035;-64
2023/05/24 07:59:37;;;;;;;15.93;5.20;;;13.20;99.90;;;;;;5093917;28;20071;-63
2023/05/24 08:02:04;;;;;;;11.23;4.20;;;13.40;99.90;;;;;;5111359;28;20074;-64
2023/05/24 08:04:34;;;;;;;16.17;4.25;;;13.50;99.90;;;;;;5110957;28;20043;-64
2023/05/24 08:07:04;;;;;;;8.90;3.13;;;13.50;99.90;;;;;;5110845;28;20472;-65
2023/05/24 08:09:34;;;;;;;12.75;3.65;;;13.40;99.90;;;;;;5112363;28;20095;-63
2023/05/24 08:12:01;;;;;;;13.10;3.72;;;13.30;99.90;;;;;;5111377;28;20081;-64
2023/05/24 08:14:27;;;;;;;13.45;3.97;;;13.20;99.90;;;;;;5110554;28;20048;-63
2023/05/24 08:16:52;;;;;;;17.83;4.78;;;13.20;99.90;;;;;;5111485;28;20046;-63
2023/05/24 08:19:18;;;;;;;22.55;12.10;;;13.10;99.90;;;;;;5110810;28;20091;-63
2023/05/24 08:21:44;;;;;;;18.08;4.70;;;13.00;99.90;;;;;;5082736;28;20423;-63
2023/05/24 08:24:10;;;;;;;15.68;4.20;;;13.00;99.90;;;;;;5090523;28;20036;-63
2023/05/24 08:26:36;;;;;;;13.85;4.10;;;13.10;99.90;;;;;;5089905;28;20480;-63
2023/05/24 08:29:02;;;;;;;14.35;3.70;;;13.10;99.90;;;;;;5094378;28;20373;-64
2023/05/24 08:31:28;;;;;;;13.60;3.88;;;13.20;99.90;;;;;;5112149;28;20042;-63
2023/05/24 08:33:56;;;;;;;9.02;3.13;;;13.20;99.90;;;;;;5110477;28;20050;-63
2023/05/24 08:36:21;;;;;;;8.23;3.42;;;13.10;99.90;;;;;;5101761;28;20044;-63
2023/05/24 08:38:47;;;;;;;12.45;3.55;;;13.10;99.90;;;;;;5090289;28;20040;-63
2023/05/24 08:41:13;;;;;;;11.18;4.10;;;13.10;99.90;;;;;;5089701;28;20040;-63
2023/05/24 08:43:40;;;;;;;11.85;4.07;;;13.00;99.90;;;;;;5074339;28;20123;-63
2023/05/24 08:46:07;;;;;;;11.98;5.78;;;12.90;99.90;;;;;;5091648;28;20055;-63
2023/05/24 08:48:46;;;;;;;12.23;3.95;;;13.00;99.90;;;;;;5091662;28;20051;-63
2023/05/24 08:51:16;;;;;;;10.90;3.88;;;13.00;99.90;;;;;;5094914;28;20086;-63
2023/05/24 08:53:47;;;;;;;8.60;3.78;;;13.00;99.90;;;;;;5095484;28;20047;-63
2023/05/24 08:56:16;;;;;;;8.80;3.22;;;12.90;99.90;;;;;;5090355;28;20044;-65
2023/05/24 08:58:42;;;;;;;11.38;4.45;;;12.90;99.90;;;;;;5090796;28;20040;-63
2023/05/24 09:01:09;;;;;;;12.05;6.00;;;12.90;99.90;;;;;;5107206;28;20073;-63
2023/05/24 09:03:36;;;;;;;16.65;9.00;;;13.00;99.90;;;;;;5109759;28;20385;-64
2023/05/24 09:06:02;;;;;;;10.60;5.25;;;13.00;99.90;;;;;;5110485;28;20043;-64
2023/05/24 09:08:29;;;;;;;11.02;4.38;;;13.10;99.90;;;;;;5092024;28;20054;-63
2023/05/24 09:10:55;;;;;;;10.20;3.35;;;13.30;99.90;;;;;;5106698;28;20043;-63
2023/05/24 09:13:23;;;;;;;16.27;5.00;;;13.30;99.90;;;;;;5114137;28;20463;-64
2023/05/24 09:15:50;;;;;;;15.07;6.15;;;13.40;99.90;;;;;;5104044;28;20495;-64
2023/05/24 09:18:16;;;;;;;10.38;3.92;;;13.50;99.90;;;;;;5093916;28;20078;-64
2023/05/24 09:20:41;;;;;;;16.33;6.60;;;13.50;99.90;;;;;;5093618;28;20072;-63
2023/05/24 09:23:08;;;;;;;12.02;5.05;;;13.60;99.90;;;;;;5112333;28;20054;-63
2023/05/24 09:25:34;;;;;;;14.68;7.28;;;13.80;99.90;;;;;;5112027;28;20047;-64
2023/05/24 09:28:05;;;;;;;11.73;4.22;;;13.70;99.90;;;;;;5096154;28;20108;-63
2023/05/24 09:30:31;;;;;;;10.63;3.83;;;13.60;99.90;;;;;;5112732;28;20043;-63
2023/05/24 09:32:58;;;;;;;10.48;3.70;;;13.60;99.90;;;;;;5108070;28;20028;-63
2023/05/24 09:35:27;;;;;;;17.55;4.55;;;13.60;99.90;;;;;;5092976;28;20039;-64
2023/05/24 09:37:56;;;;;;;17.70;5.05;;;13.50;99.90;;;;;;5091988;28;20039;-63
2023/05/24 09:40:22;;;;;;;11.00;4.25;;;13.60;99.90;;;;;;5075210;28;20043;-64
2023/05/24 09:43:00;;;;;;;10.95;4.05;;;13.50;99.90;;;;;;5093188;28;20521;-64
2023/05/24 09:45:27;;;;;;;8.82;3.33;;;13.50;99.90;;;;;;5101119;28;20510;-64
2023/05/24 09:47:53;;;;;;;15.27;4.35;;;13.60;99.90;;;;;;5112714;28;20095;-64
2023/05/24 09:50:19;;;;;;;12.80;4.75;;;13.70;99.90;;;;;;5104611;28;20145;-62
2023/05/24 09:52:45;;;;;;;14.10;5.32;;;13.70;99.90;;;;;;5103291;28;20031;-62
2023/05/24 09:55:11;;;;;;;10.95;4.88;;;13.90;99.90;;;;;;5094363;28;20040;-61
2023/05/24 09:57:37;;;;;;;12.50;3.85;;;14.00;99.90;;;;;;5092509;28;20085;-63
2023/05/24 10:00:16;;;;;;;7.90;2.80;;;14.10;99.90;;;;;;5092212;28;20040;-63
2023/05/24 10:02:43;;;;;;;12.38;4.97;;;14.10;99.90;;;;;;5091602;28;20493;-63
2023/05/24 10:05:12;;;;;;;12.20;3.08;;;14.00;99.90;;;;;;5090868;28;20047;-62
2023/05/24 10:07:41;;;;;;;9.63;3.90;;;14.00;99.90;;;;;;5092349;28;20369;-63
2023/05/24 10:10:08;;;;;;;13.77;3.58;;;14.10;99.90;;;;;;5098970;28;20046;-62
2023/05/24 10:12:41;;;;;;;11.65;3.47;;;14.20;99.90;;;;;;5100477;28;20110;-63
2023/05/24 10:15:08;;;;;;;10.32;3.10;;;14.20;99.90;;;;;;5102329;28;20432;-63
2023/05/24 10:17:34;;;;;;;8.82;4.05;;;14.10;99.90;;;;;;5110301;28;20039;-62
2023/05/24 10:20:00;;;;;;;10.43;4.10;;;14.10;99.90;;;;;;5109570;28;20050;-62
2023/05/24 10:22:27;;;;;;;15.00;4.43;;;14.10;99.90;;;;;;5091011;28;20040;-62
2023/05/24 10:24:58;;;;;;;11.98;3.58;;;14.10;99.90;;;;;;5110101;28;20488;-63
2023/05/24 10:27:29;;;;;;;11.13;4.07;;;14.10;99.90;;;;;;5107521;28;20391;-63
2023/05/24 10:30:04;;;;;;;12.27;4.45;;;14.10;99.90;;;;;;5110003;28;20048;-63
2023/05/24 10:32:32;;;;;;;14.52;3.72;;;14.20;99.90;;;;;;5107750;28;20050;-63
2023/05/24 10:35:03;;;;;;;9.45;4.03;;;14.20;99.90;;;;;;5107455;28;20039;-63
2023/05/24 10:37:30;;;;;;;10.77;3.95;;;14.20;99.90;;;;;;5108692;28;20459;-62
2023/05/24 10:39:58;;;;;;;14.52;4.07;;;14.20;99.90;;;;;;5109128;28;20048;-63
2023/05/24 10:42:23;;;;;;;13.52;5.18;;;14.20;99.90;;;;;;5109006;28;20123;-62
2023/05/24 10:44:49;;;;;;;14.20;4.32;;;14.30;99.90;;;;;;5108954;28;20479;-63
2023/05/24 10:47:16;;;;;;;13.05;4.00;;;14.40;99.90;;;;;;5091303;28;20502;-63
2023/05/24 10:49:51;;;;;;;11.95;3.70;;;14.40;99.90;;;;;;5099126;28;20157;-63
2023/05/24 10:52:17;;;;;;;15.45;3.78;;;14.60;99.90;;;;;;5106373;28;20043;-64
2023/05/24 10:55:04;;;;;;;8.95;3.75;;;14.70;99.90;;;;;;5094738;28;20047;-64
2023/05/24 10:57:31;;;;;;;15.02;4.85;;;14.80;99.90;;;;;;5092999;28;20036;-65
2023/05/24 11:00:17;;;;;;;15.00;5.10;;;14.80;99.90;;;;;;5079209;28;20119;-63
2023/05/24 11:02:43;;;;;;;12.45;3.83;;;14.80;99.90;;;;;;5097235;28;20431;-60
2023/05/24 11:05:09;;;;;;;10.00;3.90;;;14.90;99.90;;;;;;5095920;28;20032;-64
2023/05/24 11:07:43;;;;;;;14.95;4.35;;;15.00;99.90;;;;;;5091208;28;20079;-63
2023/05/24 11:10:14;;;;;;;13.35;4.13;;;15.10;99.90;;;;;;5073897;28;20044;-63
2023/05/24 11:12:40;;;;;;;10.88;3.67;;;15.20;99.90;;;;;;5090552;28;20047;-63
2023/05/24 11:15:08;;;;;;;13.40;4.18;;;15.20;99.90;;;;;;5073169;28;20100;-63
2023/05/24 11:18:12;;;;;;;10.35;3.53;;;15.20;99.90;;;;;;5091371;28;20071;-63
2023/05/24 11:20:42;;;;;;;13.52;4.07;;;15.10;99.90;;;;;;5077912;28;20048;-63
2023/05/24 11:23:08;;;;;;;10.27;3.60;;;15.20;99.90;;;;;;5093914;28;20052;-63
2023/05/24 11:25:41;;;;;;;11.60;5.00;;;15.40;99.90;;;;;;5095652;28;20488;-63
2023/05/24 11:28:11;;;;;;;10.98;3.00;;;15.40;99.90;;;;;;5094909;28;20122;-63
2023/05/24 11:30:46;;;;;;;8.52;3.67;;;15.20;99.90;;;;;;5095061;28;20047;-63
2023/05/24 11:33:23;;;;;;;7.88;3.15;;;15.20;99.90;;;;;;5094462;28;20123;-63
2023/05/24 11:35:54;;;;;;;9.30;3.70;;;15.20;99.90;;;;;;5094912;28;20488;-63
2023/05/24 11:38:20;;;;;;;10.60;3.83;;;15.20;99.90;;;;;;5094128;28;20046;-64
2023/05/24 11:40:48;;;;;;;12.50;3.50;;;15.10;99.90;;;;;;5094766;28;20055;-63
2023/05/24 11:43:19;;;;;;;10.88;3.92;;;15.10;99.90;;;;;;5094480;28;20092;-63
2023/05/24 11:45:49;;;;;;;11.18;3.35;;;15.10;99.90;;;;;;5095716;28;20141;-63
2023/05/24 11:48:15;;;;;;;12.20;3.53;;;15.00;99.90;;;;;;5094368;28;20077;-63
2023/05/24 11:50:44;;;;;;;10.93;3.30;;;15.20;99.90;;;;;;5093242;28;20079;-63
2023/05/24 11:53:11;;;;;;;9.43;3.28;;;15.40;99.90;;;;;;5095346;28;20040;-63
2023/05/24 11:55:39;;;;;;;10.93;3.50;;;15.50;99.90;;;;;;5093985;28;20040;-63
2023/05/24 11:58:12;;;;;;;9.10;3.60;;;15.80;99.90;;;;;;5076785;28;20385;-63
2023/05/24 12:00:38;;;;;;;7.20;2.72;;;15.70;99.90;;;;;;5093928;28;20040;-63
2023/05/24 12:03:06;;;;;;;10.15;3.63;;;15.60;99.90;;;;;;5094390;28;20118;-63
2023/05/24 12:05:32;;;;;;;8.80;2.90;;;15.60;99.90;;;;;;5094044;28;20077;-63
2023/05/24 12:08:05;;;;;;;6.03;2.50;;;15.60;99.90;;;;;;5077128;28;20522;-63
2023/05/24 12:10:33;;;;;;;7.95;3.00;;;15.50;99.90;;;;;;5093314;28;20044;-63
2023/05/24 12:12:58;;;;;;;10.82;2.88;;;15.50;99.90;;;;;;5094356;28;20123;-63
2023/05/24 12:15:24;;;;;;;9.50;3.80;;;15.70;99.90;;;;;;5093236;28;20159;-63
2023/05/24 12:17:50;;;;;;;12.30;3.47;;;15.60;99.90;;;;;;5093027;28;20048;-63
2023/05/24 12:20:20;;;;;;;12.93;3.65;;;15.60;99.90;;;;;;5095062;28;20036;-63
2023/05/24 12:22:53;;;;;;;10.35;3.70;;;15.60;99.90;;;;;;5095250;28;20123;-63
2023/05/24 12:25:20;;;;;;;12.05;3.85;;;15.60;99.90;;;;;;5092982;28;20040;-63
2023/05/24 12:27:51;;;;;;;10.23;3.30;;;15.50;99.90;;;;;;5093945;28;20397;-63
2023/05/24 12:30:24;;;;;;;9.38;3.20;;;15.50;99.90;;;;;;5092475;28;20066;-63
2023/05/24 12:32:53;;;;;;;10.45;3.13;;;15.80;99.90;;;;;;5092780;28;20059;-63
2023/05/24 12:35:19;;;;;;;6.85;2.47;;;16.00;99.90;;;;;;5094496;28;20397;-63
2023/05/24 12:37:45;;;;;;;10.20;3.70;;;15.90;99.90;;;;;;5093334;28;20075;-63
2023/05/24 12:40:22;;;;;;;12.75;3.80;;;15.70;99.90;;;;;;5092756;28;20127;-63
2023/05/24 12:42:58;;;;;;;6.38;2.40;;;15.70;99.90;;;;;;5093265;28;20032;-63
2023/05/24 12:45:27;;;;;;;11.88;3.50;;;15.80;99.90;;;;;;5094184;28;20105;-63